Time;durP1;ratioP1;P1;durP2;ratioP2;P2;SDS_P1;SDS_P2;PMS_P1;PMS_P2;Temp;Humidity;BMP_temperature;BMP_pressure;BME280_temperature;BME280_humidity;BME280_pressure;Samples;Min_cycle;Max_cycle;Signal;HPM_P1;HPM_P2
2022/09/05 00:02:00;;;;;;;;;7.75;6.50;;;;;22.48;65.15;99546.34;4954803;28;45745;-57
2022/09/05 00:04:31;;;;;;;;;6.60;6.00;;;;;22.48;65.43;99552.59;4955102;28;45524;-58
2022/09/05 00:07:24;;;;;;;;;7.60;6.80;;;;;22.49;65.20;99554.28;4998989;28;45386;-57
2022/09/05 00:10:08;;;;;;;;;3.00;3.00;;;;;22.49;65.61;99556.97;5015934;28;45490;-57
2022/09/05 00:12:36;;;;;;;;;8.50;7.25;;;;;22.49;66.06;99554.28;5015798;28;45521;-57
2022/09/05 00:15:17;;;;;;;;;6.40;6.40;;;;;22.50;65.63;99547.94;5016314;28;45333;-57
2022/09/05 00:18:30;;;;;;;;;9.00;7.00;;;;;22.50;65.47;99545.25;5016325;28;45320;-57
2022/09/05 00:21:21;;;;;;;;;7.50;7.50;;;;;22.50;65.84;99550.63;4982862;28;45384;-57
2022/09/05 00:23:53;;;;;;;;;5.25;5.25;;;;;22.50;65.78;99549.78;5015598;28;45626;-57
2022/09/05 00:26:33;;;;;;;;;8.00;7.00;;;;;22.49;65.85;99553.44;5016129;28;45478;-57
2022/09/05 00:29:08;;;;;;;;;6.00;5.50;;;;;22.48;65.95;99549.91;5016018;28;45422;-57
2022/09/05 00:31:54;;;;;;;;;7.00;6.00;;;;;22.47;65.94;99550.03;5016184;28;45383;-57
2022/09/05 00:34:54;;;;;;;;;7.00;7.00;;;;;22.45;66.47;99546.63;5015991;28;46519;-57
2022/09/05 00:37:41;;;;;;;;;6.60;6.40;;;;;22.44;66.39;99543.09;5015209;28;45450;-57
2022/09/05 00:40:15;;;;;;;;;6.40;6.40;;;;;22.45;66.37;99535.88;5015646;28;45444;-57
2022/09/05 00:42:43;;;;;;;;;6.00;5.00;;;;;22.47;66.98;99531.22;5015648;28;45500;-57
2022/09/05 00:45:19;;;;;;;;;8.50;7.50;;;;;22.46;66.74;99548.31;5015265;28;46519;-57
2022/09/05 00:47:56;;;;;;;;;6.40;6.40;;;;;22.44;66.93;99545.78;5015600;28;45353;-57
2022/09/05 00:50:32;;;;;;;;;5.80;5.20;;;;;22.44;67.26;99544.94;5015950;28;45369;-57
2022/09/05 00:53:10;;;;;;;;;7.50;5.75;;;;;22.38;67.18;99553.47;5015113;28;45583;-57
2022/09/05 00:56:13;;;;;;;;;6.00;6.00;;;;;22.27;67.31;99549.84;5007876;28;47361;-57
2022/09/05 00:58:57;;;;;;;;;7.20;7.00;;;;;22.22;67.58;99549.34;4954157;28;45428;-57
2022/09/05 01:02:18;;;;;;;;;7.80;7.00;;;;;22.22;67.97;99552.03;5011221;28;45450;-57
2022/09/05 01:04:51;;;;;;;;;8.50;5.50;;;;;22.22;68.09;99543.13;4967476;28;45651;-57
2022/09/05 01:07:54;;;;;;;;;8.75;7.50;;;;;22.23;68.43;99545.69;5015617;28;46415;-57
2022/09/05 01:11:02;;;;;;;;;9.00;7.00;;;;;22.18;68.73;99547.03;5013937;28;45471;-57
2022/09/05 01:13:56;;;;;;;;;6.40;5.80;;;;;22.12;69.02;99545.69;4971336;28;45344;-57
2022/09/05 01:16:41;;;;;;;;;8.25;7.50;;;;;22.08;68.79;99551.47;5014845;28;45505;-57
2022/09/05 01:19:36;;;;;;;;;7.00;7.00;;;;;21.98;68.83;99559.34;5014952;28;46555;-57
2022/09/05 01:22:10;;;;;;;;;8.00;7.00;;;;;21.90;68.51;99551.06;5015284;28;45336;-57
2022/09/05 01:25:13;;;;;;;;;5.00;4.60;;;;;21.84;68.87;99554.22;5014600;28;45379;-57
2022/09/05 01:27:48;;;;;;;;;7.00;7.00;;;;;21.83;69.14;99556.06;5014846;28;45340;-57
2022/09/05 01:30:23;;;;;;;;;8.80;6.20;;;;;21.83;69.22;99553.38;5014870;28;46586;-57
2022/09/05 01:33:03;;;;;;;;;9.00;8.00;;;;;21.82;68.99;99550.81;5015136;28;45314;-57
2022/09/05 01:35:35;;;;;;;;;7.00;6.75;;;;;21.79;69.49;99549.22;5014871;28;45388;-57
2022/09/05 01:38:16;;;;;;;;;10.50;6.25;;;;;21.78;69.39;99552.91;5014137;28;45382;-57
2022/09/05 01:40:54;;;;;;;;;8.00;7.00;;;;;21.77;68.82;99550.34;5014242;28;45758;-57
2022/09/05 01:43:44;;;;;;;;;7.60;7.60;;;;;21.75;69.01;99553.16;5015023;28;45377;-57
2022/09/05 01:46:40;;;;;;;;;8.00;6.50;;;;;21.76;69.91;99554.00;5014973;28;45506;-57
2022/09/05 01:49:28;;;;;;;;;6.50;6.50;;;;;21.72;70.43;99555.22;5015061;28;45452;-57
2022/09/05 01:52:35;;;;;;;;;9.00;7.25;;;;;21.67;70.34;99560.94;5014816;28;46137;-57
2022/09/05 01:55:19;;;;;;;;;8.00;7.00;;;;;21.66;70.51;99569.94;5013636;28;45474;-57
2022/09/05 01:57:47;;;;;;;;;7.25;7.25;;;;;21.65;70.59;99570.06;5014794;28;45378;-57
2022/09/05 02:00:17;;;;;;;;;10.25;7.50;;;;;21.66;70.94;99564.59;5014249;28;45366;-57
2022/09/05 02:03:14;;;;;;;;;7.00;7.00;;;;;21.65;70.89;99562.88;5014534;28;46595;-57
2022/09/05 02:05:59;;;;;;;;;9.80;7.00;;;;;21.66;70.62;99561.03;4978853;28;45478;-57
2022/09/05 02:08:49;;;;;;;;;5.60;5.60;;;;;21.64;70.90;99563.00;5014345;28;45375;-57
2022/09/05 02:11:15;;;;;;;;;6.25;6.25;;;;;21.63;71.35;99569.34;5014400;28;45505;-57
2022/09/05 02:13:52;;;;;;;;;7.00;7.00;;;;;21.58;71.57;99572.41;5014486;28;45915;-57
2022/09/05 02:16:42;;;;;;;;;7.00;6.60;;;;;21.45;72.02;99566.28;5014327;28;45401;-58
2022/09/05 02:19:08;;;;;;;;;8.25;7.75;;;;;21.40;71.83;99565.78;5009200;28;45423;-57
2022/09/05 02:21:36;;;;;;;;;8.50;7.00;;;;;21.37;72.35;99569.56;5014505;28;45409;-57
2022/09/05 02:24:14;;;;;;;;;8.50;7.50;;;;;21.39;72.06;99567.59;5013917;28;47185;-57
2022/09/05 02:27:06;;;;;;;;;6.80;6.80;;;;;21.38;72.10;99571.25;5014335;28;45769;-57
2022/09/05 02:29:41;;;;;;;;;8.75;7.75;;;;;21.38;72.10;99565.03;4997775;28;45438;-57
2022/09/05 02:32:20;;;;;;;;;8.25;8.25;;;;;21.37;72.24;99566.00;5014077;28;45362;-57
2022/09/05 02:35:02;;;;;;;;;7.75;7.25;;;;;21.33;72.37;99562.72;5014279;28;45534;-57
2022/09/05 02:37:34;;;;;;;;;10.20;7.40;;;;;21.28;72.63;99570.28;5014146;28;45403;-57
2022/09/05 02:40:23;;;;;;;;;7.00;6.25;;;;;21.26;73.05;99569.53;5013946;28;45410;-57
2022/09/05 02:43:10;;;;;;;;;8.75;8.00;;;;;21.27;73.04;99573.06;5014179;28;45517;-58
2022/09/05 02:45:50;;;;;;;;;8.50;8.00;;;;;21.30;73.14;99570.97;5013986;28;45450;-57
2022/09/05 02:48:51;;;;;;;;;9.60;7.80;;;;;21.34;72.85;99572.47;5014109;28;45432;-57
2022/09/05 02:51:38;;;;;;;;;8.25;7.00;;;;;21.34;73.27;99569.78;4982554;28;45619;-57
2022/09/05 02:54:09;;;;;;;;;8.00;7.00;;;;;21.33;73.38;99578.81;5002483;28;45338;-57
2022/09/05 02:56:59;;;;;;;;;7.40;7.00;;;;;21.34;73.65;99575.16;5013992;28;46285;-49
2022/09/05 02:59:27;;;;;;;;;7.00;7.00;;;;;21.35;73.13;99578.69;5013812;28;45430;-51
2022/09/05 03:02:11;;;;;;;;;9.00;7.50;;;;;21.35;73.19;99570.63;5013971;28;45379;-57
2022/09/05 03:04:54;;;;;;;;;10.25;10.00;;;;;21.34;73.07;99571.59;5013238;28;45399;-57
2022/09/05 03:07:41;;;;;;;;;9.00;7.50;;;;;21.33;73.14;99570.75;5013739;28;46388;-57
2022/09/05 03:10:06;;;;;;;;;7.40;7.40;;;;;21.31;73.50;99577.22;5014099;28;45392;-58
2022/09/05 03:13:04;;;;;;;;;8.00;8.00;;;;;21.31;73.75;99577.22;5012792;28;45269;-58
2022/09/05 03:16:06;;;;;;;;;8.00;8.00;;;;;21.33;73.01;99577.94;5013783;28;45308;-57
2022/09/05 03:18:53;;;;;;;;;7.00;7.00;;;;;21.33;73.41;99580.63;5017291;28;46282;-57
2022/09/05 03:21:36;;;;;;;;;10.40;8.00;;;;;21.31;72.90;99569.16;5008496;28;45435;-57
2022/09/05 03:24:23;;;;;;;;;7.75;7.25;;;;;21.29;73.25;99580.00;5016862;28;45570;-57
2022/09/05 03:27:10;;;;;;;;;7.00;7.00;;;;;21.26;73.46;99580.25;5017067;28;45736;-58
2022/09/05 03:30:03;;;;;;;;;7.40;6.40;;;;;21.23;73.14;99572.44;5016628;28;45798;-58
2022/09/05 03:33:00;;;;;;;;;7.40;7.40;;;;;21.23;72.99;99573.31;5016780;28;45439;-57
2022/09/05 03:35:31;;;;;;;;;8.75;7.00;;;;;21.26;73.53;99576.72;5016777;28;45452;-57
2022/09/05 03:38:34;;;;;;;;;8.00;7.50;;;;;21.26;73.15;99572.22;5016449;28;45335;-58
2022/09/05 03:41:02;;;;;;;;;13.00;12.00;;;;;21.27;73.71;99578.44;5016699;28;45457;-58
2022/09/05 03:43:40;;;;;;;;;10.60;7.00;;;;;21.26;73.79;99574.03;5016632;28;45577;-58
2022/09/05 03:46:24;;;;;;;;;8.00;7.50;;;;;21.26;73.64;99571.38;5006716;28;45433;-58
2022/09/05 03:49:03;;;;;;;;;8.75;7.00;;;;;21.23;73.31;99575.13;5015742;28;45324;-57
2022/09/05 03:51:54;;;;;;;;;7.75;7.75;;;;;21.21;73.55;99577.94;5016537;28;45531;-58
2022/09/05 03:54:33;;;;;;;;;10.20;9.20;;;;;21.20;74.07;99570.00;5016645;28;45602;-58
2022/09/05 03:57:13;;;;;;;;;8.00;7.00;;;;;21.20;74.14;99575.34;5016715;28;45470;-58
2022/09/05 04:00:19;;;;;;;;;9.50;9.00;;;;;21.18;73.85;99570.06;5016233;28;45354;-58
2022/09/05 04:02:57;;;;;;;;;11.00;9.50;;;;;21.18;74.02;99575.44;4954470;28;46456;-58
2022/09/05 04:05:28;;;;;;;;;8.00;6.20;;;;;21.19;74.11;99576.28;5000667;28;45450;-58
2022/09/05 04:08:06;;;;;;;;;9.25;8.25;;;;;21.17;74.14;99576.41;5015881;28;45451;-58
2022/09/05 04:10:39;;;;;;;;;8.25;7.00;;;;;21.16;73.83;99577.38;5015828;28;45491;-58
2022/09/05 04:13:15;;;;;;;;;6.40;6.40;;;;;21.12;74.39;99577.72;5016212;28;45332;-58
2022/09/05 04:15:45;;;;;;;;;7.40;6.80;;;;;21.09;74.01;99577.97;5016039;28;45390;-59
2022/09/05 04:18:16;;;;;;;;;7.20;7.20;;;;;21.05;74.25;99581.84;5016072;28;45486;-59
2022/09/05 04:20:48;;;;;;;;;8.50;8.50;;;;;21.01;74.68;99581.22;5016158;28;45315;-58
2022/09/05 04:23:35;;;;;;;;;10.60;9.60;;;;;21.00;74.84;99582.19;5015601;28;46676;-58
2022/09/05 04:26:17;;;;;;;;;9.00;8.60;;;;;20.99;74.78;99587.66;4998206;28;45417;-58
2022/09/05 04:29:02;;;;;;;;;10.25;9.25;;;;;20.95;75.04;99584.38;5016085;28;45476;-58
2022/09/05 04:31:27;;;;;;;;;8.00;8.00;;;;;20.95;75.09;99583.53;5015591;28;45382;-58
2022/09/05 04:34:06;;;;;;;;;6.75;6.00;;;;;20.94;75.16;99581.81;5015544;28;46179;-58
2022/09/05 04:36:35;;;;;;;;;10.00;8.40;;;;;20.94;75.29;99585.38;5015671;28;45462;-58
2022/09/05 04:39:18;;;;;;;;;9.50;8.50;;;;;20.93;75.17;99580.97;5014917;28;45385;-58
2022/09/05 04:42:07;;;;;;;;;10.00;7.50;;;;;20.92;74.72;99587.31;5015722;28;45502;-58
2022/09/05 04:44:56;;;;;;;;;9.75;8.00;;;;;20.90;74.61;99586.56;5015374;28;45622;-59
2022/09/05 04:47:22;;;;;;;;;9.00;8.40;;;;;20.89;75.34;99587.53;5003160;28;45457;-58
2022/09/05 04:49:56;;;;;;;;;9.00;8.00;;;;;20.84;74.82;99595.03;5015716;28;45367;-58
2022/09/05 04:53:13;;;;;;;;;7.75;6.50;;;;;20.76;75.39;99606.34;5015682;28;45475;-57
2022/09/05 04:55:44;;;;;;;;;10.25;9.75;;;;;20.74;75.59;99608.28;4997117;28;45533;-58
2022/09/05 04:58:21;;;;;;;;;10.60;8.80;;;;;20.71;75.37;99608.50;5015210;28;45315;-69
2022/09/05 05:00:58;;;;;;;;;10.25;10.00;;;;;20.70;75.25;99612.16;5013328;28;45498;-58
2022/09/05 05:03:29;;;;;;;;;8.00;8.00;;;;;20.68;75.96;99605.19;5014973;28;45551;-58
2022/09/05 05:06:30;;;;;;;;;9.50;9.25;;;;;20.67;75.85;99624.91;5014869;28;46441;-58
2022/09/05 05:09:05;;;;;;;;;12.80;10.60;;;;;20.65;76.14;99624.16;5014519;28;45446;-58
2022/09/05 05:11:36;;;;;;;;;10.25;10.00;;;;;20.64;75.93;99631.34;5004272;28;45442;-58
2022/09/05 05:14:15;;;;;;;;;11.00;8.25;;;;;20.64;76.01;99626.00;5014483;28;45430;-59
2022/09/05 05:16:48;;;;;;;;;10.75;9.50;;;;;20.64;75.87;99635.84;5014521;28;46703;-59
2022/09/05 05:19:29;;;;;;;;;9.80;9.40;;;;;20.65;76.40;99634.88;5014323;28;45421;-58
2022/09/05 05:21:58;;;;;;;;;7.75;7.75;;;;;20.67;76.56;99632.94;5014532;28;45450;-58
2022/09/05 05:24:31;;;;;;;;;9.50;8.00;;;;;20.70;76.02;99643.44;5014008;28;45447;-58
2022/09/05 05:27:03;;;;;;;;;13.25;9.75;;;;;20.74;75.80;99645.81;5014713;28;45367;-58
2022/09/05 05:30:03;;;;;;;;;10.00;8.40;;;;;20.76;75.99;99645.69;5014377;28;45494;-58
2022/09/05 05:32:39;;;;;;;;;10.75;10.25;;;;;20.74;75.54;99634.22;5014083;28;45435;-58
2022/09/05 05:35:11;;;;;;;;;12.75;11.50;;;;;20.74;75.98;99642.25;5014038;28;45474;-58
2022/09/05 05:37:41;;;;;;;;;10.00;9.25;;;;;20.75;75.75;99647.50;5013521;28;46458;-58
2022/09/05 05:40:15;;;;;;;;;10.00;10.00;;;;;20.78;75.87;99646.44;5012793;28;45382;-58
2022/09/05 05:42:43;;;;;;;;;10.25;9.50;;;;;20.78;75.59;99649.94;5014345;28;45366;-58
2022/09/05 05:45:16;;;;;;;;;11.00;11.00;;;;;20.78;75.58;99655.31;5012383;28;45348;-58
2022/09/05 05:47:44;;;;;;;;;11.25;11.00;;;;;20.79;76.01;99658.84;5013849;28;45425;-58
2022/09/05 05:50:28;;;;;;;;;12.60;12.00;;;;;20.78;75.99;99654.47;5011356;28;45380;-58
2022/09/05 05:53:30;;;;;;;;;12.25;11.25;;;;;20.80;75.78;99657.88;5013712;28;45449;-58
2022/09/05 05:56:16;;;;;;;;;9.00;7.25;;;;;20.82;75.97;99659.47;5013481;28;45523;-58
2022/09/05 05:59:01;;;;;;;;;11.25;11.00;;;;;20.86;75.78;99666.34;5013901;28;45852;-58
2022/09/05 06:02:03;;;;;;;;;19.00;17.25;;;;;20.90;75.50;99666.97;5013024;28;45433;-58
2022/09/05 06:04:41;;;;;;;;;11.50;10.00;;;;;20.96;75.68;99674.53;4995231;28;45482;-58
2022/09/05 06:07:11;;;;;;;;;12.25;9.25;;;;;21.01;75.11;99671.53;5013183;28;45534;-58
2022/09/05 06:10:21;;;;;;;;;11.00;11.00;;;;;21.04;75.41;99668.63;5012806;28;45598;-58
2022/09/05 06:13:14;;;;;;;;;9.60;8.80;;;;;21.09;75.38;99667.31;4952436;28;45555;-58
2022/09/05 06:16:13;;;;;;;;;10.50;8.50;;;;;21.14;74.70;99670.50;5013122;28;45512;-58
2022/09/05 06:18:50;;;;;;;;;11.50;10.50;;;;;21.16;74.77;99673.06;5011059;28;45351;-58
2022/09/05 06:21:28;;;;;;;;;9.25;9.25;;;;;21.17;74.92;99674.78;5012136;28;45457;-58
2022/09/05 06:24:38;;;;;;;;;11.00;10.20;;;;;21.21;74.67;99668.25;5006825;28;45642;-58
2022/09/05 06:27:19;;;;;;;;;12.00;9.00;;;;;21.26;74.33;99667.91;4974142;28;45405;-61
2022/09/05 06:29:59;;;;;;;;;10.25;8.75;;;;;21.29;73.99;99665.81;5001704;28;45465;-60
2022/09/05 06:32:43;;;;;;;;;10.25;10.25;;;;;21.33;74.32;99664.63;5007824;28;45639;-61
2022/09/05 06:35:37;;;;;;;;;10.60;10.60;;;;;21.40;73.92;99665.88;5009809;28;45332;-61
2022/09/05 06:38:22;;;;;;;;;8.25;7.75;;;;;21.47;73.54;99656.38;5009859;28;45482;-61
2022/09/05 06:41:20;;;;;;;;;11.75;8.75;;;;;21.54;73.67;99659.47;5008592;28;45379;-61
2022/09/05 06:44:30;;;;;;;;;13.50;12.00;;;;;21.58;73.05;99659.13;5007997;28;45649;-58
2022/09/05 06:47:03;;;;;;;;;11.80;9.20;;;;;21.63;73.20;99665.94;5007003;28;45442;-59
2022/09/05 06:49:40;;;;;;;;;9.75;9.00;;;;;21.70;72.67;99667.19;5012727;28;45438;-59
2022/09/05 06:52:43;;;;;;;;;7.50;7.50;;;;;21.77;72.41;99665.75;5015748;28;45615;-61
2022/09/05 06:55:46;;;;;;;;;7.75;7.75;;;;;21.85;72.24;99672.22;5011067;28;45450;-61
2022/09/05 06:58:29;;;;;;;;;10.60;10.60;;;;;21.92;71.80;99668.09;5002330;28;45738;-63
2022/09/05 07:00:57;;;;;;;;;11.75;9.75;;;;;21.99;71.73;99670.28;5015463;28;45725;-62
2022/09/05 07:03:41;;;;;;;;;9.75;7.50;;;;;22.07;71.58;99673.28;5010188;28;45434;-62
2022/09/05 07:06:19;;;;;;;;;11.50;10.25;;;;;22.15;71.46;99673.50;5011103;28;45496;-62
2022/09/05 07:08:50;;;;;;;;;8.00;7.60;;;;;22.24;71.37;99665.59;5008307;28;45559;-62
2022/09/05 07:11:21;;;;;;;;;9.40;9.40;;;;;22.36;70.26;99663.75;5015266;28;45406;-62
2022/09/05 07:13:56;;;;;;;;;11.75;9.50;;;;;22.46;69.93;99667.41;5011008;28;45358;-62
2022/09/05 07:16:35;;;;;;;;;11.40;9.00;;;;;22.56;69.53;99663.00;5010029;28;45483;-62
2022/09/05 07:19:11;;;;;;;;;12.00;9.60;;;;;22.64;68.95;99663.22;5012841;28;45461;-63
2022/09/05 07:21:43;;;;;;;;;10.00;9.25;;;;;22.72;69.00;99661.75;5014871;28;45574;-64
2022/09/05 07:24:15;;;;;;;;;8.50;7.50;;;;;22.80;68.46;99654.78;5015002;28;45448;-59
2022/09/05 07:26:45;;;;;;;;;10.00;9.00;;;;;22.90;68.40;99655.75;5015022;28;45524;-66
2022/09/05 07:29:15;;;;;;;;;744.00;636.75;;;;;23.03;68.38;99657.44;5013539;28;45586;-60
2022/09/05 07:31:44;;;;;;;;;20.75;20.75;;;;;23.15;67.38;99654.56;4997681;28;45507;-61
2022/09/05 07:34:29;;;;;;;;;10.50;10.00;;;;;23.27;67.13;99652.72;5009115;28;45609;-63
2022/09/05 07:37:05;;;;;;;;;7.50;7.50;;;;;23.32;66.47;99656.69;5008803;28;47350;-58
2022/09/05 07:39:39;;;;;;;;;8.40;7.00;;;;;23.36;66.00;99654.63;4996729;28;45391;-59
2022/09/05 07:42:12;;;;;;;;;9.00;8.40;;;;;23.44;65.46;99652.13;5014361;28;45402;-61
2022/09/05 07:44:46;;;;;;;;;9.00;7.50;;;;;23.53;65.48;99661.28;5002525;28;45308;-61
2022/09/05 07:47:22;;;;;;;;;9.60;9.00;;;;;23.65;65.11;99657.53;5012476;28;46463;-58
2022/09/05 07:49:50;;;;;;;;;11.00;10.00;;;;;23.75;64.86;99649.53;5002613;28;45476;-58
2022/09/05 07:52:19;;;;;;;;;11.20;8.60;;;;;23.86;64.50;99661.09;5014084;28;45472;-58
2022/09/05 07:54:47;;;;;;;;;9.75;8.75;;;;;23.93;63.16;99664.97;5013466;28;45492;-61
2022/09/05 07:57:22;;;;;;;;;8.20;8.20;;;;;23.98;62.90;99649.25;5011015;28;45402;-61
2022/09/05 07:59:52;;;;;;;;;7.40;7.40;;;;;24.06;62.17;99645.91;5010997;28;45518;-61
2022/09/05 08:02:18;;;;;;;;;9.00;9.00;;;;;24.16;61.06;99644.09;5004521;28;45468;-61
2022/09/05 08:04:43;;;;;;;;;11.00;11.00;;;;;24.24;60.38;99647.00;5006573;28;45477;-60
2022/09/05 08:07:27;;;;;;;;;9.75;9.75;;;;;24.30;60.85;99645.59;4995665;28;47048;-61
2022/09/05 08:10:28;;;;;;;;;7.60;7.00;;;;;24.33;60.16;99640.78;5006068;28;45520;-61
2022/09/05 08:13:07;;;;;;;;;11.20;9.80;;;;;24.40;59.69;99634.88;4990916;28;45447;-62
2022/09/05 08:15:36;;;;;;;;;8.00;6.25;;;;;24.42;59.87;99639.13;5011014;28;45480;-61
2022/09/05 08:18:19;;;;;;;;;8.20;8.20;;;;;24.44;59.70;99623.69;5000421;28;45710;-61
2022/09/05 08:20:59;;;;;;;;;9.80;8.00;;;;;24.51;59.60;99627.53;5001343;28;45567;-61
2022/09/05 08:23:42;;;;;;;;;8.40;6.80;;;;;24.57;59.32;99620.72;5000262;28;45756;-62
2022/09/05 08:26:18;;;;;;;;;8.75;8.50;;;;;24.63;58.84;99620.19;5013824;28;45666;-61
2022/09/05 08:29:19;;;;;;;;;11.80;9.60;;;;;24.67;58.73;99618.91;5013269;28;45817;-60
2022/09/05 08:32:07;;;;;;;;;9.20;8.40;;;;;24.69;58.54;99606.13;4981442;28;45551;-61
2022/09/05 08:34:38;;;;;;;;;10.20;8.40;;;;;24.73;58.21;99612.09;5004062;28;45430;-61
2022/09/05 08:37:06;;;;;;;;;81.33;64.33;;;;;24.78;58.74;99608.00;5011869;28;45601;-60
2022/09/05 08:39:33;;;;;;;;;6.80;4.20;;;;;24.87;58.56;99603.59;4998294;28;45481;-61
2022/09/05 08:41:58;;;;;;;;;8.20;6.80;;;;;24.91;58.65;99605.03;5009103;28;45435;-61
2022/09/05 08:44:58;;;;;;;;;10.50;9.50;;;;;24.92;58.67;99607.59;5011985;28;45378;-62
2022/09/05 08:47:26;;;;;;;;;6.50;6.00;;;;;24.97;58.27;99599.94;4978980;28;45474;-61
2022/09/05 08:50:09;;;;;;;;;10.75;9.75;;;;;25.01;58.34;99597.81;5006689;28;45905;-61
2022/09/05 08:52:46;;;;;;;;;9.00;9.00;;;;;25.03;58.14;99593.16;5010281;28;45465;-62
2022/09/05 08:55:14;;;;;;;;;8.00;8.00;;;;;25.06;58.30;99592.88;5007168;28;45399;-61
2022/09/05 08:58:07;;;;;;;;;9.75;8.75;;;;;25.12;58.29;99597.72;5013140;28;45356;-62
2022/09/05 09:00:43;;;;;;;;;8.40;8.40;;;;;25.17;57.98;99599.97;5000307;28;45528;-59
2022/09/05 09:03:42;;;;;;;;;16.00;15.60;;;;;25.18;58.10;99597.13;5009256;28;45525;-58
2022/09/05 09:06:26;;;;;;;;;8.40;8.40;;;;;25.22;58.21;99593.16;5013044;28;46293;-59
2022/09/05 09:09:13;;;;;;;;;7.00;7.00;;;;;25.26;58.26;99588.31;4994800;28;45595;-61
2022/09/05 09:11:56;;;;;;;;;9.75;9.25;;;;;25.29;58.30;99588.03;5012421;28;46269;-60
2022/09/05 09:14:46;;;;;;;;;9.20;7.80;;;;;25.34;58.34;99588.44;5004565;28;45475;-59
2022/09/05 09:17:28;;;;;;;;;10.60;9.00;;;;;25.37;58.50;99580.91;5011433;28;45413;-58
2022/09/05 09:20:14;;;;;;;;;9.50;6.75;;;;;25.42;58.56;99579.63;5009821;28;45524;-58
2022/09/05 09:22:55;;;;;;;;;7.00;6.20;;;;;25.48;58.33;99568.22;5012397;28;45585;-57
2022/09/05 09:25:36;;;;;;;;;7.80;7.80;;;;;25.53;58.15;99564.09;5007209;28;45588;-57
2022/09/05 09:28:07;;;;;;;;;11.00;10.75;;;;;25.59;57.93;99560.84;5002299;28;45527;-59
2022/09/05 09:30:35;;;;;;;;;8.25;8.25;;;;;25.62;58.11;99557.88;5011306;28;45652;-57
2022/09/05 09:33:06;;;;;;;;;11.40;7.60;;;;;25.68;57.45;99553.72;5013163;28;45590;-58
2022/09/05 09:35:31;;;;;;;;;7.00;7.00;;;;;25.72;57.28;99553.28;5010631;28;45523;-57
2022/09/05 09:38:12;;;;;;;;;22.00;17.75;;;;;25.83;57.20;99554.09;5008883;28;45439;-58
2022/09/05 09:40:41;;;;;;;;;9.00;9.00;;;;;25.92;57.47;99551.38;5011304;28;45635;-63
2022/09/05 09:43:13;;;;;;;;;14.00;13.25;;;;;25.97;56.80;99554.50;5009971;28;46253;-62
2022/09/05 09:45:51;;;;;;;;;9.60;7.40;;;;;26.00;56.67;99546.06;5010896;28;45534;-60
2022/09/05 09:48:42;;;;;;;;;14.25;12.25;;;;;26.04;56.55;99549.31;4993073;28;45435;-61
2022/09/05 09:51:26;;;;;;;;;9.25;8.50;;;;;26.08;56.49;99543.47;5003794;28;45373;-61
2022/09/05 09:54:24;;;;;;;;;9.80;9.40;;;;;26.15;56.41;99537.44;5006602;28;46346;-60
2022/09/05 09:56:52;;;;;;;;;10.40;8.20;;;;;26.21;55.76;99536.88;5010370;28;45414;-60
2022/09/05 09:59:46;;;;;;;;;7.80;6.20;;;;;26.26;56.07;99531.88;4995205;28;45461;-61
2022/09/05 10:02:32;;;;;;;;;10.00;10.00;;;;;26.29;55.73;99537.00;5001182;28;45513;-61
2022/09/05 10:05:31;;;;;;;;;10.50;9.25;;;;;26.34;55.45;99523.88;4998247;28;47263;-59
2022/09/05 10:08:17;;;;;;;;;11.60;10.80;;;;;26.42;54.88;99521.28;5011516;28;45576;-59
2022/09/05 10:11:06;;;;;;;;;10.60;10.60;;;;;26.42;54.55;99516.72;5008701;28;45427;-59
2022/09/05 10:14:11;;;;;;;;;9.75;9.50;;;;;26.43;54.27;99517.56;5005083;28;45384;-60
2022/09/05 10:16:52;;;;;;;;;9.00;9.00;;;;;26.44;55.21;99505.75;5010473;28;46260;-60
2022/09/05 10:19:56;;;;;;;;;8.80;8.00;;;;;26.45;54.84;99509.31;5009064;28;45428;-60
2022/09/05 10:22:34;;;;;;;;;8.20;8.20;;;;;26.42;54.61;99508.59;5011170;28;45437;-59
2022/09/05 10:25:25;;;;;;;;;9.50;8.25;;;;;26.43;55.23;99493.22;5012322;28;45451;-60
2022/09/05 10:28:34;;;;;;;;;9.40;9.40;;;;;26.45;54.51;99493.94;5001572;28;45705;-60
2022/09/05 10:31:11;;;;;;;;;10.40;8.40;;;;;26.45;54.55;99490.38;5014129;28;45457;-59
2022/09/05 10:33:49;;;;;;;;;7.00;7.00;;;;;26.46;54.22;99481.25;5013261;28;45465;-60
2022/09/05 10:36:23;;;;;;;;;8.00;8.00;;;;;26.48;54.04;99482.78;5014086;28;45454;-59
2022/09/05 10:39:19;;;;;;;;;9.40;9.40;;;;;26.52;53.51;99484.19;5012098;28;45615;-59
2022/09/05 10:41:50;;;;;;;;;8.60;8.60;;;;;26.58;53.82;99480.88;5014935;28;45398;-59
2022/09/05 10:44:39;;;;;;;;;8.40;8.40;;;;;26.64;53.15;99474.84;4999127;28;45324;-61
2022/09/05 10:47:30;;;;;;;;;11.75;11.25;;;;;26.70;52.45;99467.94;5013857;28;45438;-61
2022/09/05 10:50:30;;;;;;;;;10.00;9.00;;;;;26.72;53.07;99460.53;5008888;28;45440;-61
2022/09/05 10:53:08;;;;;;;;;10.60;10.60;;;;;26.75;52.36;99452.97;5014317;28;45426;-61
2022/09/05 10:55:56;;;;;;;;;11.20;8.40;;;;;26.80;52.05;99452.50;5015736;28;45431;-62
2022/09/05 10:58:42;;;;;;;;;10.00;9.25;;;;;26.87;52.36;99440.03;4994580;28;45393;-62
2022/09/05 11:01:24;;;;;;;;;10.80;10.60;;;;;26.94;51.97;99433.03;5016434;28;45737;-76
2022/09/05 11:03:54;;;;;;;;;9.20;9.20;;;;;27.00;52.27;99442.34;5016747;28;45481;-61
2022/09/05 11:06:33;;;;;;;;;11.25;9.50;;;;;27.09;51.75;99433.28;5016544;28;45561;-62
2022/09/05 11:09:06;;;;;;;;;10.25;10.00;;;;;27.17;52.13;99427.91;4997327;28;45376;-62
2022/09/05 11:11:51;;;;;;;;;7.60;6.60;;;;;27.21;50.28;99433.88;5014428;28;46118;-62
2022/09/05 11:14:41;;;;;;;;;9.60;7.80;;;;;27.22;51.10;99420.16;5015071;28;45438;-62
2022/09/05 11:17:13;;;;;;;;;9.25;9.25;;;;;27.25;50.87;99419.84;5015348;28;45537;-61
2022/09/05 11:19:44;;;;;;;;;10.25;10.25;;;;;27.33;50.53;99410.91;5015273;28;45429;-62
2022/09/05 11:22:14;;;;;;;;;7.80;7.80;;;;;27.42;50.09;99409.97;5015425;28;46588;-62
2022/09/05 11:24:56;;;;;;;;;10.60;9.00;;;;;27.53;50.70;99406.97;5016469;28;45501;-61
2022/09/05 11:27:39;;;;;;;;;8.50;8.00;;;;;27.65;49.63;99400.25;5016350;28;45443;-62
2022/09/05 11:30:11;;;;;;;;;7.25;7.25;;;;;27.79;48.89;99405.06;5016325;28;45382;-62
2022/09/05 11:33:26;;;;;;;;;9.20;7.40;;;;;27.94;48.92;99388.19;5015836;28;46482;-62
2022/09/05 11:35:51;;;;;;;;;9.00;6.20;;;;;28.08;48.87;99396.50;5015882;28;45386;-62
2022/09/05 11:38:37;;;;;;;;;7.75;7.75;;;;;28.15;48.29;99389.38;5014679;28;45544;-62
2022/09/05 11:41:15;;;;;;;;;7.00;7.00;;;;;28.24;47.89;99386.72;5016440;28;45625;-62
2022/09/05 11:44:11;;;;;;;;;7.60;5.80;;;;;28.37;46.89;99381.66;5015749;28;45408;-62
2022/09/05 11:47:05;;;;;;;;;7.40;5.20;;;;;28.51;47.92;99380.13;5015589;28;45481;-62
2022/09/05 11:49:54;;;;;;;;;7.00;7.00;;;;;28.65;46.86;99377.59;5001012;28;45593;-62
2022/09/05 11:52:50;;;;;;;;;7.00;6.00;;;;;28.76;46.08;99374.53;5015234;28;45433;-62
2022/09/05 11:55:55;;;;;;;;;6.80;6.00;;;;;28.90;46.82;99381.16;5015032;28;46257;-62
2022/09/05 11:58:39;;;;;;;;;7.00;6.60;;;;;29.03;46.54;99370.59;5016038;28;45375;-63
2022/09/05 12:01:27;;;;;;;;;8.75;7.75;;;;;29.11;47.42;99370.59;5015362;28;45351;-63
2022/09/05 12:03:53;;;;;;;;;6.50;6.00;;;;;29.14;47.82;99378.41;4995277;28;45419;-63
2022/09/05 12:06:24;;;;;;;;;8.75;5.00;;;;;29.18;47.71;99362.59;5015955;28;45464;-63
2022/09/05 12:09:09;;;;;;;;;9.20;7.20;;;;;29.25;48.16;99369.03;4997516;28;45415;-63
2022/09/05 12:12:00;;;;;;;;;6.80;6.80;;;;;29.34;48.18;99361.69;5014937;28;45289;-63
2022/09/05 12:14:31;;;;;;;;;9.50;8.00;;;;;29.43;46.34;99357.97;5016082;28;45514;-63
2022/09/05 12:17:30;;;;;;;;;9.60;7.60;;;;;29.50;45.19;99350.78;5015447;28;45407;-63
2022/09/05 12:20:13;;;;;;;;;8.20;7.60;;;;;29.54;47.26;99356.72;4997641;28;45457;-63
2022/09/05 12:22:51;;;;;;;;;9.00;9.00;;;;;29.60;46.68;99366.88;5015203;28;45375;-63
2022/09/05 12:25:19;;;;;;;;;7.50;7.50;;;;;29.60;46.55;99356.03;5015688;28;45344;-63
2022/09/05 12:27:53;;;;;;;;;7.25;7.25;;;;;29.53;46.56;99350.44;5004952;28;45368;-64
2022/09/05 12:30:30;;;;;;;;;8.00;7.60;;;;;29.55;45.72;99352.97;5009314;28;45430;-62
2022/09/05 12:33:02;;;;;;;;;9.60;8.60;;;;;29.56;45.70;99352.81;5015389;28;45355;-63
2022/09/05 12:35:36;;;;;;;;;7.50;7.25;;;;;29.60;47.09;99345.16;5014893;28;46430;-63
2022/09/05 12:38:34;;;;;;;;;8.25;8.25;;;;;29.71;47.15;99345.59;5009962;28;45581;-62